sensor_id;sensor_type;location;lat;lon;timestamp;temperature;humidity
25568;DHT22;13455;51.480;7.594;2023-08-01T00:20:34;17.50;99.90
25568;DHT22;13455;51.480;7.594;2023-08-01T00:22:59;17.70;99.90
25568;DHT22;13455;51.480;7.594;2023-08-01T00:25:25;17.50;99.90
25568;DHT22;13455;51.480;7.594;2023-08-01T00:27:50;17.30;99.90
25568;DHT22;13455;51.480;7.594;2023-08-01T00:30:16;17.20;99.90
25568;DHT22;13455;51.480;7.594;2023-08-01T00:32:42;17.20;99.90
25568;DHT22;13455;51.480;7.594;2023-08-01T00:35:08;17.20;99.90
25568;DHT22;13455;51.480;7.594;2023-08-01T00:39:59;17.20;99.90
25568;DHT22;13455;51.480;7.594;2023-08-01T00:42:25;17.40;99.90
25568;DHT22;13455;51.480;7.594;2023-08-01T00:44:50;17.30;99.90
25568;DHT22;13455;51.480;7.594;2023-08-01T00:47:16;17.60;99.90
25568;DHT22;13455;51.480;7.594;2023-08-01T00:49:42;17.60;99.90
25568;DHT22;13455;51.480;7.594;2023-08-01T00:52:09;17.60;99.90
25568;DHT22;13455;51.480;7.594;2023-08-01T00:54:35;17.30;99.90
25568;DHT22;13455;51.480;7.594;2023-08-01T00:57:03;17.30;99.90
25568;DHT22;13455;51.480;7.594;2023-08-01T00:59:29;17.20;99.90
25568;DHT22;13455;51.480;7.594;2023-08-01T01:01:54;17.30;99.90
25568;DHT22;13455;51.480;7.594;2023-08-01T01:04:20;17.10;99.90
25568;DHT22;13455;51.480;7.594;2023-08-01T01:06:57;17.10;99.90
25568;DHT22;13455;51.480;7.594;2023-08-01T01:09:23;17.30;99.90
25568;DHT22;13455;51.480;7.594;2023-08-01T01:11:49;17.40;99.90
25568;DHT22;13455;51.480;7.594;2023-08-01T01:14:15;16.80;99.90
25568;DHT22;13455;51.480;7.594;2023-08-01T01:16:40;17.10;99.90
25568;DHT22;13455;51.480;7.594;2023-08-01T01:19:07;17.10;99.90
25568;DHT22;13455;51.480;7.594;2023-08-01T01:21:35;17.10;99.90
25568;DHT22;13455;51.480;7.594;2023-08-01T01:24:04;17.20;99.90
25568;DHT22;13455;51.480;7.594;2023-08-01T01:26:31;16.90;99.90
25568;DHT22;13455;51.480;7.594;2023-08-01T01:28:57;17.00;99.90
25568;DHT22;13455;51.480;7.594;2023-08-01T01:31:23;16.90;99.90
25568;DHT22;13455;51.480;7.594;2023-08-01T01:33:49;16.90;99.90
25568;DHT22;13455;51.480;7.594;2023-08-01T01:36:15;17.00;99.90
25568;DHT22;13455;51.480;7.594;2023-08-01T01:38:41;16.80;99.90
25568;DHT22;13455;51.480;7.594;2023-08-01T01:41:06;16.70;99.90
25568;DHT22;13455;51.480;7.594;2023-08-01T01:43:32;16.80;99.90
25568;DHT22;13455;51.480;7.594;2023-08-01T01:45:57;16.80;99.90
25568;DHT22;13455;51.480;7.594;2023-08-01T01:48:23;16.60;99.90
25568;DHT22;13455;51.480;7.594;2023-08-01T01:50:49;17.10;99.90
25568;DHT22;13455;51.480;7.594;2023-08-01T01:53:14;16.90;99.90
25568;DHT22;13455;51.480;7.594;2023-08-01T01:55:40;16.70;99.90
25568;DHT22;13455;51.480;7.594;2023-08-01T01:58:05;16.90;99.90
25568;DHT22;13455;51.480;7.594;2023-08-01T02:00:31;16.60;99.90
25568;DHT22;13455;51.480;7.594;2023-08-01T02:02:57;16.70;99.90
25568;DHT22;13455;51.480;7.594;2023-08-01T02:05:22;16.30;99.90
25568;DHT22;13455;51.480;7.594;2023-08-01T02:07:48;16.90;99.90
25568;DHT22;13455;51.480;7.594;2023-08-01T02:10:14;16.60;99.90
25568;DHT22;13455;51.480;7.594;2023-08-01T02:12:39;16.70;99.90
25568;DHT22;13455;51.480;7.594;2023-08-01T02:15:05;16.70;99.90
25568;DHT22;13455;51.480;7.594;2023-08-01T02:17:31;16.70;99.90
25568;DHT22;13455;51.480;7.594;2023-08-01T02:19:57;16.90;99.90
25568;DHT22;13455;51.480;7.594;2023-08-01T02:22:24;16.50;99.90
25568;DHT22;13455;51.480;7.594;2023-08-01T02:24:49;16.80;99.90
25568;DHT22;13455;51.480;7.594;2023-08-01T02:27:15;16.70;99.90
25568;DHT22;13455;51.480;7.594;2023-08-01T02:29:41;16.80;99.90
25568;DHT22;13455;51.480;7.594;2023-08-01T02:32:07;16.60;99.90
25568;DHT22;13455;51.480;7.594;2023-08-01T02:34:32;16.60;99.90
25568;DHT22;13455;51.480;7.594;2023-08-01T02:36:58;16.70;99.90
25568;DHT22;13455;51.480;7.594;2023-08-01T02:39:23;16.70;99.90
25568;DHT22;13455;51.480;7.594;2023-08-01T02:41:49;16.70;99.90
25568;DHT22;13455;51.480;7.594;2023-08-01T02:44:16;16.70;99.90
25568;DHT22;13455;51.480;7.594;2023-08-01T02:46:41;16.60;99.90
25568;DHT22;13455;51.480;7.594;2023-08-01T02:49:07;16.50;99.90
25568;DHT22;13455;51.480;7.594;2023-08-01T02:51:32;16.70;99.90
25568;DHT22;13455;51.480;7.594;2023-08-01T02:53:58;16.40;99.90
25568;DHT22;13455;51.480;7.594;2023-08-01T02:56:23;16.50;99.90
25568;DHT22;13455;51.480;7.594;2023-08-01T02:58:49;16.50;99.90
25568;DHT22;13455;51.480;7.594;2023-08-01T03:01:17;16.60;99.90
25568;DHT22;13455;51.480;7.594;2023-08-01T03:03:42;16.40;99.90
25568;DHT22;13455;51.480;7.594;2023-08-01T03:06:08;16.30;99.90
25568;DHT22;13455;51.480;7.594;2023-08-01T03:08:34;16.20;99.90
25568;DHT22;13455;51.480;7.594;2023-08-01T03:10:59;16.20;99.90
25568;DHT22;13455;51.480;7.594;2023-08-01T03:13:25;16.00;99.90
25568;DHT22;13455;51.480;7.594;2023-08-01T03:15:50;16.50;99.90
25568;DHT22;13455;51.480;7.594;2023-08-01T03:18:17;16.20;99.90
25568;DHT22;13455;51.480;7.594;2023-08-01T03:20:42;16.30;99.90
25568;DHT22;13455;51.480;7.594;2023-08-01T03:23:08;16.30;99.90
25568;DHT22;13455;51.480;7.594;2023-08-01T03:25:33;16.40;99.90
25568;DHT22;13455;51.480;7.594;2023-08-01T03:27:59;16.20;99.90
25568;DHT22;13455;51.480;7.594;2023-08-01T03:30:25;16.00;99.90
25568;DHT22;13455;51.480;7.594;2023-08-01T03:32:51;16.00;99.90
25568;DHT22;13455;51.480;7.594;2023-08-01T03:35:16;16.00;99.90
25568;DHT22;13455;51.480;7.594;2023-08-01T03:37:42;16.00;99.90
25568;DHT22;13455;51.480;7.594;2023-08-01T03:40:08;16.10;99.90
25568;DHT22;13455;51.480;7.594;2023-08-01T03:42:36;16.00;99.90
25568;DHT22;13455;51.480;7.594;2023-08-01T03:45:03;16.30;99.90
25568;DHT22;13455;51.480;7.594;2023-08-01T03:47:29;16.00;99.90
25568;DHT22;13455;51.480;7.594;2023-08-01T03:49:55;16.30;99.90
25568;DHT22;13455;51.480;7.594;2023-08-01T03:52:20;16.20;99.90
25568;DHT22;13455;51.480;7.594;2023-08-01T03:54:48;15.70;99.90
25568;DHT22;13455;51.480;7.594;2023-08-01T03:57:14;16.30;99.90
25568;DHT22;13455;51.480;7.594;2023-08-01T03:59:39;16.40;99.90
25568;DHT22;13455;51.480;7.594;2023-08-01T04:02:05;16.20;99.90
25568;DHT22;13455;51.480;7.594;2023-08-01T04:04:30;16.00;99.90
25568;DHT22;13455;51.480;7.594;2023-08-01T04:06:57;16.30;99.90
25568;DHT22;13455;51.480;7.594;2023-08-01T04:09:22;16.10;99.90
25568;DHT22;13455;51.480;7.594;2023-08-01T04:11:48;16.00;99.90
25568;DHT22;13455;51.480;7.594;2023-08-01T04:14:14;16.20;99.90
25568;DHT22;13455;51.480;7.594;2023-08-01T04:16:39;16.20;99.90
25568;DHT22;13455;51.480;7.594;2023-08-01T04:19:05;16.10;99.90
25568;DHT22;13455;51.480;7.594;2023-08-01T04:21:31;16.10;99.90
25568;DHT22;13455;51.480;7.594;2023-08-01T04:23:56;15.90;99.90
25568;DHT22;13455;51.480;7.594;2023-08-01T04:26:22;16.10;99.90
25568;DHT22;13455;51.480;7.594;2023-08-01T04:28:47;16.20;99.90
25568;DHT22;13455;51.480;7.594;2023-08-01T04:31:14;16.20;99.90
25568;DHT22;13455;51.480;7.594;2023-08-01T04:33:40;16.00;99.90
25568;DHT22;13455;51.480;7.594;2023-08-01T04:36:05;16.00;99.90
25568;DHT22;13455;51.480;7.594;2023-08-01T04:38:31;16.40;99.90
25568;DHT22;13455;51.480;7.594;2023-08-01T04:40:57;16.10;99.90
25568;DHT22;13455;51.480;7.594;2023-08-01T04:43:23;16.40;99.90
25568;DHT22;13455;51.480;7.594;2023-08-01T04:45:48;15.90;99.90
25568;DHT22;13455;51.480;7.594;2023-08-01T04:48:14;16.00;99.90
25568;DHT22;13455;51.480;7.594;2023-08-01T04:50:39;16.20;99.90
25568;DHT22;13455;51.480;7.594;2023-08-01T04:53:05;16.20;99.90
25568;DHT22;13455;51.480;7.594;2023-08-01T04:55:31;16.10;99.90
25568;DHT22;13455;51.480;7.594;2023-08-01T04:57:57;16.20;99.90
25568;DHT22;13455;51.480;7.594;2023-08-01T05:00:23;16.00;99.90
25568;DHT22;13455;51.480;7.594;2023-08-01T05:02:49;16.10;99.90
25568;DHT22;13455;51.480;7.594;2023-08-01T05:05:14;16.10;99.90
25568;DHT22;13455;51.480;7.594;2023-08-01T05:07:41;16.00;99.90
25568;DHT22;13455;51.480;7.594;2023-08-01T05:10:07;15.90;99.90
25568;DHT22;13455;51.480;7.594;2023-08-01T05:12:33;16.00;99.90
25568;DHT22;13455;51.480;7.594;2023-08-01T05:14:58;16.20;99.90
25568;DHT22;13455;51.480;7.594;2023-08-01T05:17:24;16.10;99.90
25568;DHT22;13455;51.480;7.594;2023-08-01T05:19:50;15.90;99.90
25568;DHT22;13455;51.480;7.594;2023-08-01T05:22:15;16.10;99.90
25568;DHT22;13455;51.480;7.594;2023-08-01T05:24:41;15.90;99.90
25568;DHT22;13455;51.480;7.594;2023-08-01T05:27:07;16.00;99.90
25568;DHT22;13455;51.480;7.594;2023-08-01T05:29:32;16.10;99.90
25568;DHT22;13455;51.480;7.594;2023-08-01T05:31:58;16.10;99.90
25568;DHT22;13455;51.480;7.594;2023-08-01T05:34:23;15.80;99.90
25568;DHT22;13455;51.480;7.594;2023-08-01T05:36:49;16.10;99.90
25568;DHT22;13455;51.480;7.594;2023-08-01T05:39:15;16.00;99.90
25568;DHT22;13455;51.480;7.594;2023-08-01T05:41:42;16.00;99.90
25568;DHT22;13455;51.480;7.594;2023-08-01T05:44:08;15.60;99.90
25568;DHT22;13455;51.480;7.594;2023-08-01T05:46:33;16.10;99.90
25568;DHT22;13455;51.480;7.594;2023-08-01T05:48:59;15.90;99.90
25568;DHT22;13455;51.480;7.594;2023-08-01T05:51:25;16.10;99.90
25568;DHT22;13455;51.480;7.594;2023-08-01T05:53:50;15.90;99.90
25568;DHT22;13455;51.480;7.594;2023-08-01T05:56:16;16.10;99.90
25568;DHT22;13455;51.480;7.594;2023-08-01T05:58:41;15.90;99.90
25568;DHT22;13455;51.480;7.594;2023-08-01T06:01:07;15.30;99.90
25568;DHT22;13455;51.480;7.594;2023-08-01T06:03:34;15.90;99.90
25568;DHT22;13455;51.480;7.594;2023-08-01T06:06:00;16.00;99.90
25568;DHT22;13455;51.480;7.594;2023-08-01T06:08:25;16.10;99.90
25568;DHT22;13455;51.480;7.594;2023-08-01T06:10:51;16.30;99.90
25568;DHT22;13455;51.480;7.594;2023-08-01T06:13:17;16.00;99.90
25568;DHT22;13455;51.480;7.594;2023-08-01T06:15:42;16.00;99.90
25568;DHT22;13455;51.480;7.594;2023-08-01T06:18:08;15.90;99.90
25568;DHT22;13455;51.480;7.594;2023-08-01T06:20:33;16.00;99.90
25568;DHT22;13455;51.480;7.594;2023-08-01T06:22:59;16.10;99.90
25568;DHT22;13455;51.480;7.594;2023-08-01T06:25:25;16.10;99.90
25568;DHT22;13455;51.480;7.594;2023-08-01T06:27:50;16.40;99.90
25568;DHT22;13455;51.480;7.594;2023-08-01T06:30:16;16.50;99.90
25568;DHT22;13455;51.480;7.594;2023-08-01T06:32:41;16.20;99.90
25568;DHT22;13455;51.480;7.594;2023-08-01T06:35:07;16.10;99.90
25568;DHT22;13455;51.480;7.594;2023-08-01T06:37:33;16.00;99.90
25568;DHT22;13455;51.480;7.594;2023-08-01T06:39:58;16.30;99.90
25568;DHT22;13455;51.480;7.594;2023-08-01T06:42:24;16.40;99.90
25568;DHT22;13455;51.480;7.594;2023-08-01T06:44:50;16.10;99.90
25568;DHT22;13455;51.480;7.594;2023-08-01T06:47:16;16.40;99.90
25568;DHT22;13455;51.480;7.594;2023-08-01T06:49:41;16.20;99.90
25568;DHT22;13455;51.480;7.594;2023-08-01T06:52:07;16.10;99.90
25568;DHT22;13455;51.480;7.594;2023-08-01T06:54:33;16.00;99.90
25568;DHT22;13455;51.480;7.594;2023-08-01T06:56:58;16.20;99.90
25568;DHT22;13455;51.480;7.594;2023-08-01T06:59:25;16.50;99.90
25568;DHT22;13455;51.480;7.594;2023-08-01T07:01:50;16.40;99.90
25568;DHT22;13455;51.480;7.594;2023-08-01T07:04:16;16.50;99.90
25568;DHT22;13455;51.480;7.594;2023-08-01T07:06:42;16.60;99.90
25568;DHT22;13455;51.480;7.594;2023-08-01T07:09:08;16.60;99.90
25568;DHT22;13455;51.480;7.594;2023-08-01T07:11:33;16.40;99.90
25568;DHT22;13455;51.480;7.594;2023-08-01T07:13:59;17.00;99.90
25568;DHT22;13455;51.480;7.594;2023-08-01T07:16:25;17.00;99.90
25568;DHT22;13455;51.480;7.594;2023-08-01T07:18:50;17.20;99.90
25568;DHT22;13455;51.480;7.594;2023-08-01T07:21:16;16.90;99.90
25568;DHT22;13455;51.480;7.594;2023-08-01T07:23:42;17.20;99.90
25568;DHT22;13455;51.480;7.594;2023-08-01T07:26:08;17.30;99.90
25568;DHT22;13455;51.480;7.594;2023-08-01T07:28:34;17.10;99.90
25568;DHT22;13455;51.480;7.594;2023-08-01T07:31:05;17.30;99.90
25568;DHT22;13455;51.480;7.594;2023-08-01T07:33:32;17.40;99.90
25568;DHT22;13455;51.480;7.594;2023-08-01T07:35:57;17.50;99.90
25568;DHT22;13455;51.480;7.594;2023-08-01T07:38:23;17.50;99.90
25568;DHT22;13455;51.480;7.594;2023-08-01T07:40:49;17.60;99.90
25568;DHT22;13455;51.480;7.594;2023-08-01T07:43:15;17.30;99.90
25568;DHT22;13455;51.480;7.594;2023-08-01T07:45:40;17.70;99.90
25568;DHT22;13455;51.480;7.594;2023-08-01T07:48:06;17.70;99.90
25568;DHT22;13455;51.480;7.594;2023-08-01T07:50:32;17.80;99.90
25568;DHT22;13455;51.480;7.594;2023-08-01T07:52:57;17.60;99.90
25568;DHT22;13455;51.480;7.594;2023-08-01T07:55:23;17.40;99.90
25568;DHT22;13455;51.480;7.594;2023-08-01T07:57:48;17.70;99.90
25568;DHT22;13455;51.480;7.594;2023-08-01T08:00:14;17.50;99.90
25568;DHT22;13455;51.480;7.594;2023-08-01T08:02:45;17.50;99.90
25568;DHT22;13455;51.480;7.594;2023-08-01T08:05:11;17.70;99.90
25568;DHT22;13455;51.480;7.594;2023-08-01T08:07:37;17.70;99.90
25568;DHT22;13455;51.480;7.594;2023-08-01T08:10:04;18.00;99.90
25568;DHT22;13455;51.480;7.594;2023-08-01T08:12:30;17.80;99.90
25568;DHT22;13455;51.480;7.594;2023-08-01T08:14:56;17.60;99.90
25568;DHT22;13455;51.480;7.594;2023-08-01T08:17:21;17.90;99.90
25568;DHT22;13455;51.480;7.594;2023-08-01T08:19:47;18.10;99.90
25568;DHT22;13455;51.480;7.594;2023-08-01T08:22:12;18.20;99.90
25568;DHT22;13455;51.480;7.594;2023-08-01T08:24:38;18.20;99.90
25568;DHT22;13455;51.480;7.594;2023-08-01T08:29:31;18.20;99.90
25568;DHT22;13455;51.480;7.594;2023-08-01T08:41:52;18.80;99.90
25568;DHT22;13455;51.480;7.594;2023-08-01T08:44:19;18.90;99.90
25568;DHT22;13455;51.480;7.594;2023-08-01T08:46:55;19.10;99.90
25568;DHT22;13455;51.480;7.594;2023-08-01T08:49:26;19.10;99.90
25568;DHT22;13455;51.480;7.594;2023-08-01T08:51:52;19.20;99.90
25568;DHT22;13455;51.480;7.594;2023-08-01T08:59:12;19.80;99.90
25568;DHT22;13455;51.480;7.594;2023-08-01T09:01:39;19.70;99.90
25568;DHT22;13455;51.480;7.594;2023-08-01T09:04:05;19.80;99.90
25568;DHT22;13455;51.480;7.594;2023-08-01T09:06:45;19.80;99.90
25568;DHT22;13455;51.480;7.594;2023-08-01T09:14:15;20.40;99.90
25568;DHT22;13455;51.480;7.594;2023-08-01T09:16:42;20.50;99.90
25568;DHT22;13455;51.480;7.594;2023-08-01T09:19:08;20.90;99.90
25568;DHT22;13455;51.480;7.594;2023-08-01T09:21:35;20.50;99.90
25568;DHT22;13455;51.480;7.594;2023-08-01T09:31:57;20.70;99.90
25568;DHT22;13455;51.480;7.594;2023-08-01T09:34:24;20.80;99.90
25568;DHT22;13455;51.480;7.594;2023-08-01T09:39:20;20.70;99.90
25568;DHT22;13455;51.480;7.594;2023-08-01T09:42:00;21.00;99.90
25568;DHT22;13455;51.480;7.594;2023-08-01T09:44:27;20.60;99.90
25568;DHT22;13455;51.480;7.594;2023-08-01T09:47:01;20.70;99.90
25568;DHT22;13455;51.480;7.594;2023-08-01T09:49:28;20.60;99.90
25568;DHT22;13455;51.480;7.594;2023-08-01T09:51:54;20.90;99.90
25568;DHT22;13455;51.480;7.594;2023-08-01T09:54:20;21.10;99.90
25568;DHT22;13455;51.480;7.594;2023-08-01T09:56:48;21.40;99.90
25568;DHT22;13455;51.480;7.594;2023-08-01T09:59:22;21.30;99.90
25568;DHT22;13455;51.480;7.594;2023-08-01T10:01:49;21.40;99.90
25568;DHT22;13455;51.480;7.594;2023-08-01T10:04:23;21.70;99.90
25568;DHT22;13455;51.480;7.594;2023-08-01T10:06:54;21.90;99.90
25568;DHT22;13455;51.480;7.594;2023-08-01T10:09:21;21.80;99.90
25568;DHT22;13455;51.480;7.594;2023-08-01T10:11:48;22.10;99.90
25568;DHT22;13455;51.480;7.594;2023-08-01T10:16:42;22.10;99.90
25568;DHT22;13455;51.480;7.594;2023-08-01T10:19:09;22.20;99.90
25568;DHT22;13455;51.480;7.594;2023-08-01T10:21:35;22.20;99.90
25568;DHT22;13455;51.480;7.594;2023-08-01T10:24:03;22.20;99.90
25568;DHT22;13455;51.480;7.594;2023-08-01T10:26:30;22.20;99.90
25568;DHT22;13455;51.480;7.594;2023-08-01T10:31:24;22.40;99.90
25568;DHT22;13455;51.480;7.594;2023-08-01T10:33:50;22.60;99.90
25568;DHT22;13455;51.480;7.594;2023-08-01T10:36:20;22.80;99.90
25568;DHT22;13455;51.480;7.594;2023-08-01T10:38:47;22.80;99.90
25568;DHT22;13455;51.480;7.594;2023-08-01T10:41:39;22.80;99.90
25568;DHT22;13455;51.480;7.594;2023-08-01T10:44:11;22.90;99.90
25568;DHT22;13455;51.480;7.594;2023-08-01T10:49:12;22.90;99.90
25568;DHT22;13455;51.480;7.594;2023-08-01T10:51:38;22.50;99.90
25568;DHT22;13455;51.480;7.594;2023-08-01T10:54:04;22.10;99.90
25568;DHT22;13455;51.480;7.594;2023-08-01T10:56:30;22.10;99.90
25568;DHT22;13455;51.480;7.594;2023-08-01T10:58:59;21.90;99.90
25568;DHT22;13455;51.480;7.594;2023-08-01T11:01:24;21.80;99.90
25568;DHT22;13455;51.480;7.594;2023-08-01T11:03:53;21.60;99.90
25568;DHT22;13455;51.480;7.594;2023-08-01T11:08:45;21.50;99.90
25568;DHT22;13455;51.480;7.594;2023-08-01T11:11:14;21.40;99.90
25568;DHT22;13455;51.480;7.594;2023-08-01T11:13:39;21.30;99.90
25568;DHT22;13455;51.480;7.594;2023-08-01T11:16:05;21.30;99.90
25568;DHT22;13455;51.480;7.594;2023-08-01T11:18:44;21.30;99.90
25568;DHT22;13455;51.480;7.594;2023-08-01T11:21:10;21.40;99.90
25568;DHT22;13455;51.480;7.594;2023-08-01T11:23:36;21.60;99.90
25568;DHT22;13455;51.480;7.594;2023-08-01T11:26:08;21.70;99.90
25568;DHT22;13455;51.480;7.594;2023-08-01T11:28:34;21.90;99.90
25568;DHT22;13455;51.480;7.594;2023-08-01T11:30:59;22.00;99.90
25568;DHT22;13455;51.480;7.594;2023-08-01T11:33:25;22.10;99.90
25568;DHT22;13455;51.480;7.594;2023-08-01T11:35:55;22.00;99.90
25568;DHT22;13455;51.480;7.594;2023-08-01T11:38:26;21.90;99.90
25568;DHT22;13455;51.480;7.594;2023-08-01T11:40:56;21.40;99.90
25568;DHT22;13455;51.480;7.594;2023-08-01T11:43:21;21.10;99.90
25568;DHT22;13455;51.480;7.594;2023-08-01T11:45:51;20.80;99.90
25568;DHT22;13455;51.480;7.594;2023-08-01T11:48:17;20.50;99.90
25568;DHT22;13455;51.480;7.594;2023-08-01T11:50:44;20.30;99.90
25568;DHT22;13455;51.480;7.594;2023-08-01T11:53:20;20.10;99.90
25568;DHT22;13455;51.480;7.594;2023-08-01T11:55:46;20.00;99.90
25568;DHT22;13455;51.480;7.594;2023-08-01T11:58:12;19.90;99.90
25568;DHT22;13455;51.480;7.594;2023-08-01T12:00:39;19.80;99.90
25568;DHT22;13455;51.480;7.594;2023-08-01T12:03:10;19.80;99.90
25568;DHT22;13455;51.480;7.594;2023-08-01T12:05:42;19.90;99.90
25568;DHT22;13455;51.480;7.594;2023-08-01T12:08:14;19.60;99.90
25568;DHT22;13455;51.480;7.594;2023-08-01T12:10:44;19.60;99.90
25568;DHT22;13455;51.480;7.594;2023-08-01T12:13:21;19.50;99.90
25568;DHT22;13455;51.480;7.594;2023-08-01T12:15:52;19.50;99.90
25568;DHT22;13455;51.480;7.594;2023-08-01T12:18:25;19.40;99.90
25568;DHT22;13455;51.480;7.594;2023-08-01T12:20:51;19.40;99.90
25568;DHT22;13455;51.480;7.594;2023-08-01T12:23:17;19.40;99.90
25568;DHT22;13455;51.480;7.594;2023-08-01T12:25:43;19.50;99.90
25568;DHT22;13455;51.480;7.594;2023-08-01T12:28:09;19.40;99.90
25568;DHT22;13455;51.480;7.594;2023-08-01T12:30:35;19.30;99.90
25568;DHT22;13455;51.480;7.594;2023-08-01T12:33:00;19.40;99.90
25568;DHT22;13455;51.480;7.594;2023-08-01T12:35:26;19.50;99.90
25568;DHT22;13455;51.480;7.594;2023-08-01T12:37:53;19.50;99.90
25568;DHT22;13455;51.480;7.594;2023-08-01T12:40:19;19.80;99.90
25568;DHT22;13455;51.480;7.594;2023-08-01T12:42:46;20.10;99.90
25568;DHT22;13455;51.480;7.594;2023-08-01T12:45:11;20.20;99.90
25568;DHT22;13455;51.480;7.594;2023-08-01T12:47:37;20.30;99.90
25568;DHT22;13455;51.480;7.594;2023-08-01T12:50:03;20.40;99.90
25568;DHT22;13455;51.480;7.594;2023-08-01T12:52:29;20.30;99.90
25568;DHT22;13455;51.480;7.594;2023-08-01T12:54:54;20.50;99.90
25568;DHT22;13455;51.480;7.594;2023-08-01T12:57:20;20.40;99.90
25568;DHT22;13455;51.480;7.594;2023-08-01T12:59:45;20.10;99.90
25568;DHT22;13455;51.480;7.594;2023-08-01T13:02:13;20.30;99.90
25568;DHT22;13455;51.480;7.594;2023-08-01T13:04:38;20.30;99.90
25568;DHT22;13455;51.480;7.594;2023-08-01T13:07:04;20.30;99.90
25568;DHT22;13455;51.480;7.594;2023-08-01T13:09:30;20.30;99.90
25568;DHT22;13455;51.480;7.594;2023-08-01T13:11:56;20.10;99.90
25568;DHT22;13455;51.480;7.594;2023-08-01T13:14:24;20.40;99.90
25568;DHT22;13455;51.480;7.594;2023-08-01T13:16:49;20.50;99.90
25568;DHT22;13455;51.480;7.594;2023-08-01T13:19:15;20.50;99.90
25568;DHT22;13455;51.480;7.594;2023-08-01T13:21:41;20.60;99.90
25568;DHT22;13455;51.480;7.594;2023-08-01T13:24:06;20.50;99.90
25568;DHT22;13455;51.480;7.594;2023-08-01T13:26:32;20.50;99.90
25568;DHT22;13455;51.480;7.594;2023-08-01T13:28:58;20.50;99.90
25568;DHT22;13455;51.480;7.594;2023-08-01T13:31:26;20.60;99.90
25568;DHT22;13455;51.480;7.594;2023-08-01T13:33:53;20.80;99.90
25568;DHT22;13455;51.480;7.594;2023-08-01T13:36:18;20.90;99.90
25568;DHT22;13455;51.480;7.594;2023-08-01T13:38:44;21.10;99.90
25568;DHT22;13455;51.480;7.594;2023-08-01T13:41:10;21.30;99.90
25568;DHT22;13455;51.480;7.594;2023-08-01T13:43:35;21.50;99.90
25568;DHT22;13455;51.480;7.594;2023-08-01T13:46:07;21.90;99.90
25568;DHT22;13455;51.480;7.594;2023-08-01T13:50:59;23.00;99.90
25568;DHT22;13455;51.480;7.594;2023-08-01T13:53:24;23.10;99.90
25568;DHT22;13455;51.480;7.594;2023-08-01T13:55:50;23.40;99.90
25568;DHT22;13455;51.480;7.594;2023-08-01T14:00:42;23.90;99.90
25568;DHT22;13455;51.480;7.594;2023-08-01T14:03:07;24.00;99.90
25568;DHT22;13455;51.480;7.594;2023-08-01T14:05:33;24.40;99.90
25568;DHT22;13455;51.480;7.594;2023-08-01T14:07:58;24.90;99.90
25568;DHT22;13455;51.480;7.594;2023-08-01T14:10:25;25.10;99.90
25568;DHT22;13455;51.480;7.594;2023-08-01T14:12:50;25.00;99.90
25568;DHT22;13455;51.480;7.594;2023-08-01T14:17:42;24.80;99.90
25568;DHT22;13455;51.480;7.594;2023-08-01T14:20:08;24.60;99.90
25568;DHT22;13455;51.480;7.594;2023-08-01T14:22:34;24.30;99.90
25568;DHT22;13455;51.480;7.594;2023-08-01T14:25:00;23.90;99.90
25568;DHT22;13455;51.480;7.594;2023-08-01T14:37:11;23.90;99.90
25568;DHT22;13455;51.480;7.594;2023-08-01T14:39:36;24.00;99.90
25568;DHT22;13455;51.480;7.594;2023-08-01T14:44:28;24.10;99.90
25568;DHT22;13455;51.480;7.594;2023-08-01T14:46:53;24.40;99.90
25568;DHT22;13455;51.480;7.594;2023-08-01T14:51:52;25.70;99.90
25568;DHT22;13455;51.480;7.594;2023-08-01T14:54:18;26.20;99.90
25568;DHT22;13455;51.480;7.594;2023-08-01T14:56:44;26.60;99.90
25568;DHT22;13455;51.480;7.594;2023-08-01T14:59:10;26.90;99.90
25568;DHT22;13455;51.480;7.594;2023-08-01T15:06:27;27.70;99.90
25568;DHT22;13455;51.480;7.594;2023-08-01T15:08:53;27.90;99.90
25568;DHT22;13455;51.480;7.594;2023-08-01T15:13:44;28.30;99.90
25568;DHT22;13455;51.480;7.594;2023-08-01T15:16:10;28.10;99.90
25568;DHT22;13455;51.480;7.594;2023-08-01T15:25:58;27.60;99.90
25568;DHT22;13455;51.480;7.594;2023-08-01T15:28:25;27.80;99.90
25568;DHT22;13455;51.480;7.594;2023-08-01T15:31:04;28.50;98.70
25568;DHT22;13455;51.480;7.594;2023-08-01T15:43:23;26.80;95.00
25568;DHT22;13455;51.480;7.594;2023-08-01T15:45:49;26.90;99.90
25568;DHT22;13455;51.480;7.594;2023-08-01T15:57:59;24.60;99.10
25568;DHT22;13455;51.480;7.594;2023-08-01T16:05:17;24.20;99.90
25568;DHT22;13455;51.480;7.594;2023-08-01T16:07:43;24.10;99.90
25568;DHT22;13455;51.480;7.594;2023-08-01T16:10:08;24.10;99.90
25568;DHT22;13455;51.480;7.594;2023-08-01T16:12:34;24.00;99.90
25568;DHT22;13455;51.480;7.594;2023-08-01T16:15:00;23.90;99.90
25568;DHT22;13455;51.480;7.594;2023-08-01T16:17:25;23.80;99.90
25568;DHT22;13455;51.480;7.594;2023-08-01T16:19:51;24.00;99.90
25568;DHT22;13455;51.480;7.594;2023-08-01T16:22:16;24.60;99.90
25568;DHT22;13455;51.480;7.594;2023-08-01T16:24:42;25.40;99.90
25568;DHT22;13455;51.480;7.594;2023-08-01T16:39:18;25.60;99.90
25568;DHT22;13455;51.480;7.594;2023-08-01T16:41:44;25.60;99.90
25568;DHT22;13455;51.480;7.594;2023-08-01T16:44:10;26.70;99.90
25568;DHT22;13455;51.480;7.594;2023-08-01T16:49:01;27.10;99.90
25568;DHT22;13455;51.480;7.594;2023-08-01T16:51:27;27.00;96.00
25568;DHT22;13455;51.480;7.594;2023-08-01T16:58:44;25.90;95.20
25568;DHT22;13455;51.480;7.594;2023-08-01T17:01:10;25.60;96.30
25568;DHT22;13455;51.480;7.594;2023-08-01T17:03:35;25.50;96.60
25568;DHT22;13455;51.480;7.594;2023-08-01T17:06:03;25.40;97.00
25568;DHT22;13455;51.480;7.594;2023-08-01T17:15:47;24.50;97.70
25568;DHT22;13455;51.480;7.594;2023-08-01T17:18:12;24.50;97.90
25568;DHT22;13455;51.480;7.594;2023-08-01T17:23:07;24.00;98.20
25568;DHT22;13455;51.480;7.594;2023-08-01T17:25:32;23.80;99.30
25568;DHT22;13455;51.480;7.594;2023-08-01T17:27:58;23.60;98.70
25568;DHT22;13455;51.480;7.594;2023-08-01T17:30:23;23.40;98.00
25568;DHT22;13455;51.480;7.594;2023-08-01T17:32:49;23.20;97.90
25568;DHT22;13455;51.480;7.594;2023-08-01T17:35:15;23.10;97.80
25568;DHT22;13455;51.480;7.594;2023-08-01T17:40:07;22.80;99.80
25568;DHT22;13455;51.480;7.594;2023-08-01T17:42:34;22.70;99.90
25568;DHT22;13455;51.480;7.594;2023-08-01T17:45:00;22.60;99.90
25568;DHT22;13455;51.480;7.594;2023-08-01T17:47:26;22.50;99.90
25568;DHT22;13455;51.480;7.594;2023-08-01T17:52:19;22.30;99.90
25568;DHT22;13455;51.480;7.594;2023-08-01T17:54:45;22.10;99.90
25568;DHT22;13455;51.480;7.594;2023-08-01T17:57:11;22.00;99.90
25568;DHT22;13455;51.480;7.594;2023-08-01T17:59:37;21.90;99.90
25568;DHT22;13455;51.480;7.594;2023-08-01T18:02:05;21.80;99.90
25568;DHT22;13455;51.480;7.594;2023-08-01T18:04:32;21.70;99.90